Time;durP1;ratioP1;P1;durP2;ratioP2;P2;SDS_P1;SDS_P2;PMS_P1;PMS_P2;Temp;Humidity;BMP_temperature;BMP_pressure;BME280_temperature;BME280_humidity;BME280_pressure;Samples;Min_cycle;Max_cycle;Signal;HPM_P1;HPM_P2
2023/08/07 00:01:45;;;;;;;5.68;1.40;;;;;;;;;;5063677;28;20056;-73
2023/08/07 00:04:13;;;;;;;3.20;1.33;;;;;;;;;;5069123;28;20161;-73
2023/08/07 00:06:40;;;;;;;8.13;1.63;;;;;;;;;;5064334;28;20085;-72
2023/08/07 00:09:07;;;;;;;7.80;1.30;;;;;;;;;;5065690;28;20055;-72
2023/08/07 00:11:34;;;;;;;8.85;1.30;;;;;;;;;;5064270;28;20407;-72
2023/08/07 00:14:01;;;;;;;7.28;1.27;;;;;;;;;;5060536;28;20063;-72
2023/08/07 00:16:29;;;;;;;6.13;1.00;;;;;;;;;;5068186;28;20059;-72
2023/08/07 00:18:58;;;;;;;3.42;1.13;;;;;;;;;;5065183;28;20086;-72
2023/08/07 00:21:25;;;;;;;8.63;1.17;;;;;;;;;;5066773;28;20071;-72
2023/08/07 00:23:54;;;;;;;7.45;1.30;;;;;;;;;;5067376;28;20127;-72
2023/08/07 00:26:21;;;;;;;9.27;1.20;;;;;;;;;;5054292;28;20052;-72
2023/08/07 00:28:49;;;;;;;3.47;1.20;;;;;;;;;;5067222;28;20044;-72
2023/08/07 00:31:16;;;;;;;9.20;1.15;;;;;;;;;;5065814;28;20101;-72
2023/08/07 00:33:43;;;;;;;7.43;1.40;;;;;;;;;;5064810;28;20071;-72
2023/08/07 00:36:12;;;;;;;4.95;1.10;;;;;;;;;;5052840;28;20041;-72
2023/08/07 00:38:39;;;;;;;12.57;1.20;;;;;;;;;;5066108;28;20040;-72
2023/08/07 00:41:07;;;;;;;4.28;1.17;;;;;;;;;;5065196;28;20063;-72
2023/08/07 00:43:34;;;;;;;4.28;1.23;;;;;;;;;;5057307;28;20574;-72
2023/08/07 00:46:01;;;;;;;16.00;2.42;;;;;;;;;;5066967;28;20051;-72
2023/08/07 00:48:29;;;;;;;9.55;1.40;;;;;;;;;;5065664;28;20057;-72
2023/08/07 00:50:57;;;;;;;8.57;1.35;;;;;;;;;;5068768;28;20048;-72
2023/08/07 00:53:26;;;;;;;7.72;1.30;;;;;;;;;;5060585;28;20055;-72
2023/08/07 00:55:53;;;;;;;7.45;1.17;;;;;;;;;;5058648;28;20044;-72
2023/08/07 00:58:20;;;;;;;10.40;1.67;;;;;;;;;;5066289;28;20048;-72
2023/08/07 01:00:48;;;;;;;5.10;1.10;;;;;;;;;;5064369;28;20044;-72
2023/08/07 01:03:15;;;;;;;16.25;1.63;;;;;;;;;;5070780;28;20491;-72
2023/08/07 01:05:42;;;;;;;6.60;1.50;;;;;;;;;;5070546;28;20060;-72
2023/08/07 01:08:10;;;;;;;5.68;1.33;;;;;;;;;;5066778;28;20048;-73
2023/08/07 01:10:42;;;;;;;9.48;1.30;;;;;;;;;;5065338;28;20041;-72
2023/08/07 01:13:13;;;;;;;17.35;1.83;;;;;;;;;;5071075;28;20048;-72
2023/08/07 01:15:40;;;;;;;8.50;1.58;;;;;;;;;;5068879;28;20071;-73
2023/08/07 01:18:09;;;;;;;6.88;1.35;;;;;;;;;;5070617;28;20055;-72
2023/08/07 01:20:37;;;;;;;6.53;1.30;;;;;;;;;;5069911;28;20048;-72
2023/08/07 01:23:05;;;;;;;5.53;1.42;;;;;;;;;;5063388;28;20163;-72
2023/08/07 01:25:33;;;;;;;6.65;1.33;;;;;;;;;;5066025;28;20056;-72
2023/08/07 01:28:03;;;;;;;10.45;1.17;;;;;;;;;;5067477;28;20052;-72
2023/08/07 01:30:33;;;;;;;9.55;1.50;;;;;;;;;;5069097;28;20044;-72
2023/08/07 01:33:04;;;;;;;7.20;0.98;;;;;;;;;;5066214;28;20059;-72
2023/08/07 01:35:34;;;;;;;9.60;1.17;;;;;;;;;;5067767;28;20051;-72
2023/08/07 01:38:02;;;;;;;4.80;1.38;;;;;;;;;;5069777;28;20055;-72
2023/08/07 01:40:31;;;;;;;15.75;1.40;;;;;;;;;;5066395;28;20395;-72
2023/08/07 01:42:59;;;;;;;7.03;1.40;;;;;;;;;;5068279;28;20071;-73
2023/08/07 01:45:26;;;;;;;2.45;0.98;;;;;;;;;;5065353;28;20055;-73
2023/08/07 01:47:54;;;;;;;5.75;1.35;;;;;;;;;;5064991;28;20045;-73
2023/08/07 01:50:22;;;;;;;10.35;1.40;;;;;;;;;;5067559;28;20067;-72
2023/08/07 01:52:49;;;;;;;4.55;1.40;;;;;;;;;;5070395;28;20052;-72
2023/08/07 01:55:16;;;;;;;5.40;1.30;;;;;;;;;;5068599;28;20053;-72
2023/08/07 01:57:45;;;;;;;7.38;1.27;;;;;;;;;;5067528;28;20059;-73
2023/08/07 02:00:13;;;;;;;4.90;1.40;;;;;;;;;;5064129;28;20446;-73
2023/08/07 02:02:40;;;;;;;3.55;1.30;;;;;;;;;;5062977;28;20085;-73
2023/08/07 02:05:07;;;;;;;7.40;1.20;;;;;;;;;;5058392;28;20060;-73
2023/08/07 02:07:34;;;;;;;10.35;1.90;;;;;;;;;;5061722;28;20056;-72
2023/08/07 02:10:02;;;;;;;4.57;1.40;;;;;;;;;;5067745;28;20415;-70
2023/08/07 02:12:31;;;;;;;3.50;1.20;;;;;;;;;;5063351;28;20534;-70
2023/08/07 02:15:00;;;;;;;6.45;1.75;;;;;;;;;;5070701;28;20057;-70
2023/08/07 02:17:29;;;;;;;8.60;1.35;;;;;;;;;;5063540;28;20068;-70
2023/08/07 02:19:57;;;;;;;4.88;1.30;;;;;;;;;;5069154;28;20044;-70
2023/08/07 02:22:24;;;;;;;4.03;1.17;;;;;;;;;;5069361;28;20407;-70
2023/08/07 02:24:51;;;;;;;6.88;1.35;;;;;;;;;;5070045;28;20044;-71
2023/08/07 02:27:18;;;;;;;8.30;1.63;;;;;;;;;;5064665;28;20048;-71
2023/08/07 02:29:46;;;;;;;3.58;1.50;;;;;;;;;;5072140;28;20052;-71
2023/08/07 02:32:14;;;;;;;4.63;1.40;;;;;;;;;;5067820;28;20128;-71
2023/08/07 02:34:42;;;;;;;5.88;1.77;;;;;;;;;;5065936;28;20063;-70
2023/08/07 02:37:09;;;;;;;10.93;1.48;;;;;;;;;;5065725;28;20448;-71
2023/08/07 02:39:36;;;;;;;9.40;1.83;;;;;;;;;;5065909;28;20044;-70
2023/08/07 02:42:04;;;;;;;16.83;1.85;;;;;;;;;;5067668;28;20056;-70
2023/08/07 02:44:31;;;;;;;15.88;2.28;;;;;;;;;;5064542;28;20053;-69
2023/08/07 02:46:58;;;;;;;11.10;1.92;;;;;;;;;;5059774;28;20053;-70
2023/08/07 02:49:27;;;;;;;12.00;2.10;;;;;;;;;;5066515;28;20048;-69
2023/08/07 02:51:54;;;;;;;15.50;2.65;;;;;;;;;;5066413;28;20048;-69
2023/08/07 02:54:21;;;;;;;7.40;1.73;;;;;;;;;;5066303;28;20048;-68
2023/08/07 02:56:48;;;;;;;10.18;1.77;;;;;;;;;;5067801;28;20062;-70
2023/08/07 02:59:16;;;;;;;9.07;1.60;;;;;;;;;;5066671;28;20157;-70
2023/08/07 03:01:43;;;;;;;5.57;1.75;;;;;;;;;;5067416;28;20052;-70
2023/08/07 03:04:11;;;;;;;5.65;1.40;;;;;;;;;;5070540;28;20036;-71
2023/08/07 03:06:39;;;;;;;12.05;2.13;;;;;;;;;;5066189;28;20142;-70
2023/08/07 03:09:06;;;;;;;8.93;1.80;;;;;;;;;;5066877;28;20048;-72
2023/08/07 03:11:34;;;;;;;11.82;1.95;;;;;;;;;;5067712;28;20048;-72
2023/08/07 03:14:01;;;;;;;11.13;2.13;;;;;;;;;;5063741;28;20051;-72
2023/08/07 03:16:28;;;;;;;9.23;2.20;;;;;;;;;;5066548;28;20103;-72
2023/08/07 03:18:55;;;;;;;6.80;1.50;;;;;;;;;;5067818;28;20151;-72
2023/08/07 03:21:23;;;;;;;14.07;2.17;;;;;;;;;;5067109;28;20048;-72
2023/08/07 03:23:52;;;;;;;12.02;1.70;;;;;;;;;;5066514;28;20160;-72
2023/08/07 03:26:19;;;;;;;9.40;1.60;;;;;;;;;;5061319;28;20049;-73
2023/08/07 03:28:48;;;;;;;7.43;1.70;;;;;;;;;;5059320;28;20045;-72
2023/08/07 03:31:15;;;;;;;11.85;1.55;;;;;;;;;;5061521;28;20048;-72
2023/08/07 03:33:42;;;;;;;8.50;1.42;;;;;;;;;;5067665;28;20055;-72
2023/08/07 03:36:10;;;;;;;5.13;1.65;;;;;;;;;;5064993;28;20052;-73
2023/08/07 03:38:37;;;;;;;6.13;1.42;;;;;;;;;;5067822;28;20059;-73
2023/08/07 03:41:06;;;;;;;7.07;1.40;;;;;;;;;;5065416;28;20072;-73
2023/08/07 03:43:33;;;;;;;3.78;1.42;;;;;;;;;;5062484;28;20049;-72
2023/08/07 03:46:00;;;;;;;8.63;1.25;;;;;;;;;;5067122;28;20056;-72
2023/08/07 03:48:27;;;;;;;6.38;1.52;;;;;;;;;;5066581;28;20049;-72
2023/08/07 03:50:54;;;;;;;6.43;1.40;;;;;;;;;;5064775;28;20847;-71
2023/08/07 03:53:22;;;;;;;4.90;1.55;;;;;;;;;;5064048;28;20047;-69
2023/08/07 03:55:52;;;;;;;13.15;2.13;;;;;;;;;;5066050;28;20456;-70
2023/08/07 03:58:21;;;;;;;9.85;2.15;;;;;;;;;;5066721;28;20090;-70
2023/08/07 04:00:48;;;;;;;10.40;2.15;;;;;;;;;;5066918;28;20395;-71
2023/08/07 04:03:15;;;;;;;12.32;2.10;;;;;;;;;;5062704;28;20061;-71
2023/08/07 04:05:43;;;;;;;10.30;2.20;;;;;;;;;;5060084;28;20060;-71
2023/08/07 04:08:10;;;;;;;20.98;2.30;;;;;;;;;;5064791;28;20044;-70
2023/08/07 04:10:37;;;;;;;10.20;1.92;;;;;;;;;;5063267;28;20600;-71
2023/08/07 04:13:04;;;;;;;14.65;2.83;;;;;;;;;;5062548;28;20057;-71
2023/08/07 04:15:33;;;;;;;9.60;2.45;;;;;;;;;;5060760;28;20041;-72
2023/08/07 04:18:00;;;;;;;9.80;2.20;;;;;;;;;;5066659;28;20420;-72
2023/08/07 04:20:28;;;;;;;11.55;1.98;;;;;;;;;;5067092;28;20102;-72
2023/08/07 04:22:55;;;;;;;13.18;2.17;;;;;;;;;;5068416;28;20048;-71
2023/08/07 04:25:22;;;;;;;5.57;1.67;;;;;;;;;;5066020;28;20052;-72
2023/08/07 04:27:50;;;;;;;7.13;1.77;;;;;;;;;;5064556;28;20052;-72
2023/08/07 04:30:17;;;;;;;7.28;2.10;;;;;;;;;;5065934;28;20056;-72
2023/08/07 04:32:45;;;;;;;10.93;2.33;;;;;;;;;;5067240;28;20056;-72
2023/08/07 04:35:13;;;;;;;3.63;1.52;;;;;;;;;;5063465;28;20055;-72
2023/08/07 04:37:40;;;;;;;6.30;1.85;;;;;;;;;;5066177;28;20052;-73
2023/08/07 04:40:08;;;;;;;12.93;2.15;;;;;;;;;;5066570;28;20041;-72
2023/08/07 04:42:36;;;;;;;10.07;1.92;;;;;;;;;;5064253;28;20373;-72
2023/08/07 04:45:03;;;;;;;7.30;1.77;;;;;;;;;;5065231;28;20045;-72
2023/08/07 04:47:31;;;;;;;7.53;1.50;;;;;;;;;;5065457;28;20387;-71
2023/08/07 04:49:59;;;;;;;9.15;1.77;;;;;;;;;;5065619;28;20400;-72
2023/08/07 04:52:27;;;;;;;8.60;1.67;;;;;;;;;;5064151;28;20068;-71
2023/08/07 04:54:54;;;;;;;5.65;1.52;;;;;;;;;;5066244;28;20048;-71
2023/08/07 04:57:21;;;;;;;6.53;1.73;;;;;;;;;;5065959;28;20053;-72
2023/08/07 04:59:48;;;;;;;7.32;1.83;;;;;;;;;;5062685;28;20053;-71
2023/08/07 05:02:16;;;;;;;11.45;1.90;;;;;;;;;;5066778;28;20056;-72
2023/08/07 05:04:43;;;;;;;7.13;1.90;;;;;;;;;;5060988;28;20059;-72
2023/08/07 05:07:12;;;;;;;12.00;2.40;;;;;;;;;;5066533;28;20403;-72
2023/08/07 05:09:39;;;;;;;11.25;1.58;;;;;;;;;;5066976;28;20059;-71
2023/08/07 05:12:07;;;;;;;11.32;1.70;;;;;;;;;;5061897;28;20045;-72
2023/08/07 05:14:35;;;;;;;6.75;1.63;;;;;;;;;;5062005;28;20056;-72
2023/08/07 05:17:02;;;;;;;10.63;2.03;;;;;;;;;;5063738;28;20063;-72
2023/08/07 05:19:29;;;;;;;12.50;2.13;;;;;;;;;;5064573;28;20457;-71
2023/08/07 05:21:56;;;;;;;10.45;2.10;;;;;;;;;;5066232;28;20399;-72
2023/08/07 05:24:25;;;;;;;13.25;2.42;;;;;;;;;;5063901;28;20052;-71
2023/08/07 05:26:52;;;;;;;12.75;2.00;;;;;;;;;;5064043;28;20079;-71
2023/08/07 05:29:19;;;;;;;5.13;1.70;;;;;;;;;;5062764;28;20052;-72
2023/08/07 05:31:47;;;;;;;6.28;2.13;;;;;;;;;;5062986;28;20047;-71
2023/08/07 05:34:14;;;;;;;7.38;1.50;;;;;;;;;;5063644;28;20049;-71
2023/08/07 05:36:41;;;;;;;8.35;2.03;;;;;;;;;;5063545;28;20047;-71
2023/08/07 05:39:08;;;;;;;6.40;1.40;;;;;;;;;;5062896;28;20296;-71
2023/08/07 05:41:38;;;;;;;7.97;1.48;;;;;;;;;;5059858;28;20068;-72
2023/08/07 05:44:06;;;;;;;6.20;1.40;;;;;;;;;;5063944;28;20137;-70
2023/08/07 05:46:33;;;;;;;7.18;1.35;;;;;;;;;;5057520;28;20044;-73
2023/08/07 05:49:00;;;;;;;5.07;1.05;;;;;;;;;;5065888;28;20056;-72
2023/08/07 05:51:27;;;;;;;5.60;1.60;;;;;;;;;;5062416;28;20060;-72
2023/08/07 05:53:54;;;;;;;7.13;1.27;;;;;;;;;;5066473;28;20393;-71
2023/08/07 05:56:22;;;;;;;7.38;1.30;;;;;;;;;;5066553;28;20051;-72
2023/08/07 05:58:50;;;;;;;6.97;1.40;;;;;;;;;;5069345;28;20293;-73
2023/08/07 06:01:17;;;;;;;8.02;1.45;;;;;;;;;;5066519;28;20047;-72
2023/08/07 06:03:45;;;;;;;9.63;1.42;;;;;;;;;;5069477;28;20067;-72
2023/08/07 06:06:12;;;;;;;4.72;1.25;;;;;;;;;;5063645;28;20052;-72
2023/08/07 06:08:39;;;;;;;4.72;1.17;;;;;;;;;;5066811;28;20056;-72
2023/08/07 06:11:08;;;;;;;7.45;1.05;;;;;;;;;;5066349;28;20124;-71
2023/08/07 06:13:35;;;;;;;5.60;1.30;;;;;;;;;;5066458;28;20110;-71
2023/08/07 06:16:04;;;;;;;6.35;1.38;;;;;;;;;;5070074;28;20483;-71
2023/08/07 06:18:31;;;;;;;7.97;1.40;;;;;;;;;;5066160;28;20057;-69
2023/08/07 06:20:58;;;;;;;9.52;1.60;;;;;;;;;;5068834;28;20044;-72
2023/08/07 06:23:25;;;;;;;5.35;1.17;;;;;;;;;;5063009;28;20128;-73
2023/08/07 06:25:53;;;;;;;7.93;1.40;;;;;;;;;;5069795;28;20051;-73
2023/08/07 06:28:21;;;;;;;7.97;1.35;;;;;;;;;;5070460;28;20058;-73
2023/08/07 06:30:48;;;;;;;6.90;1.10;;;;;;;;;;5056195;28;20145;-72
2023/08/07 06:33:17;;;;;;;5.97;1.27;;;;;;;;;;5063661;28;20507;-72
2023/08/07 06:35:44;;;;;;;4.72;1.52;;;;;;;;;;5065965;28;20140;-72
2023/08/07 06:38:11;;;;;;;7.70;1.13;;;;;;;;;;5065989;28;20055;-71
2023/08/07 06:40:39;;;;;;;9.00;1.13;;;;;;;;;;5067294;28;20050;-72
2023/08/07 06:43:06;;;;;;;5.10;1.33;;;;;;;;;;5064298;28;20045;-72
2023/08/07 06:45:34;;;;;;;8.20;1.60;;;;;;;;;;5068674;28;20404;-72
2023/08/07 06:48:01;;;;;;;7.40;1.10;;;;;;;;;;5069826;28;20124;-71
2023/08/07 06:50:29;;;;;;;8.73;1.52;;;;;;;;;;5068447;28;20052;-71
2023/08/07 06:52:57;;;;;;;6.32;1.20;;;;;;;;;;5068480;28;20044;-72
2023/08/07 06:55:24;;;;;;;12.73;1.85;;;;;;;;;;5061237;28;20041;-72
2023/08/07 06:57:51;;;;;;;9.05;1.50;;;;;;;;;;5064198;28;20049;-72
2023/08/07 07:00:19;;;;;;;2.97;1.58;;;;;;;;;;5067830;28;20051;-72
2023/08/07 07:02:46;;;;;;;6.55;1.52;;;;;;;;;;5068025;28;20044;-72
2023/08/07 07:05:13;;;;;;;8.10;1.50;;;;;;;;;;5068243;28;20044;-72
2023/08/07 07:07:42;;;;;;;7.88;1.55;;;;;;;;;;5065729;28;20463;-73
2023/08/07 07:10:09;;;;;;;9.07;1.58;;;;;;;;;;5061384;28;20455;-72
2023/08/07 07:12:36;;;;;;;6.80;1.20;;;;;;;;;;5068472;28;20360;-72
2023/08/07 07:15:04;;;;;;;4.35;1.27;;;;;;;;;;5063907;28;20041;-72
2023/08/07 07:17:31;;;;;;;5.90;1.50;;;;;;;;;;5065340;28;20551;-73
2023/08/07 07:19:58;;;;;;;5.60;1.33;;;;;;;;;;5065203;28;20460;-73
2023/08/07 07:22:26;;;;;;;9.05;1.70;;;;;;;;;;5066924;28;20173;-72
2023/08/07 07:24:54;;;;;;;5.25;1.40;;;;;;;;;;5068039;28;20052;-71
2023/08/07 07:27:22;;;;;;;8.48;1.70;;;;;;;;;;5066098;28;20052;-72
2023/08/07 07:29:49;;;;;;;3.30;1.05;;;;;;;;;;5062839;28;20098;-72
2023/08/07 07:32:16;;;;;;;7.70;1.33;;;;;;;;;;5067781;28;20048;-72
2023/08/07 07:34:44;;;;;;;7.45;1.60;;;;;;;;;;5069327;28;20118;-71
2023/08/07 07:37:14;;;;;;;5.95;1.30;;;;;;;;;;5067043;28;20048;-73
2023/08/07 07:39:42;;;;;;;7.70;1.90;;;;;;;;;;5066201;28;20061;-72
2023/08/07 07:42:10;;;;;;;5.53;1.20;;;;;;;;;;5067660;28;20605;-72
2023/08/07 07:44:38;;;;;;;6.78;1.85;;;;;;;;;;5066117;28;20484;-71
2023/08/07 07:47:06;;;;;;;6.45;1.50;;;;;;;;;;5068056;28;20049;-71
2023/08/07 07:49:34;;;;;;;4.18;1.30;;;;;;;;;;5064357;28;20048;-72
2023/08/07 07:52:01;;;;;;;6.28;1.77;;;;;;;;;;5067981;28;20056;-73
2023/08/07 07:54:29;;;;;;;9.43;1.52;;;;;;;;;;5066111;28;20733;-72
2023/08/07 07:56:57;;;;;;;6.35;1.58;;;;;;;;;;5062943;28;20047;-73
2023/08/07 07:59:25;;;;;;;4.53;1.17;;;;;;;;;;5064107;28;20045;-68
2023/08/07 08:01:53;;;;;;;3.38;1.10;;;;;;;;;;5065725;28;20044;-71
2023/08/07 08:04:20;;;;;;;2.97;0.77;;;;;;;;;;5067360;28;20480;-71
2023/08/07 08:06:48;;;;;;;8.27;1.58;;;;;;;;;;5068251;28;20044;-72
2023/08/07 08:09:15;;;;;;;4.03;1.23;;;;;;;;;;5067328;28;20037;-72
2023/08/07 08:11:43;;;;;;;4.32;1.23;;;;;;;;;;5066110;28;20057;-72
2023/08/07 08:14:10;;;;;;;3.80;1.23;;;;;;;;;;5066359;28;20052;-72
2023/08/07 08:16:39;;;;;;;4.68;0.80;;;;;;;;;;5064706;28;20080;-72
2023/08/07 08:19:08;;;;;;;8.40;1.08;;;;;;;;;;5064666;28;20052;-73
2023/08/07 08:21:35;;;;;;;4.53;1.08;;;;;;;;;;5067294;28;20048;-73
2023/08/07 08:24:02;;;;;;;5.15;1.42;;;;;;;;;;5059771;28;20438;-72
2023/08/07 08:26:30;;;;;;;5.85;1.60;;;;;;;;;;5066833;28;20049;-72
2023/08/07 08:28:57;;;;;;;7.38;1.30;;;;;;;;;;5065929;28;20040;-72
2023/08/07 08:31:24;;;;;;;2.92;0.77;;;;;;;;;;5066663;28;20048;-70
2023/08/07 08:33:53;;;;;;;5.43;1.52;;;;;;;;;;5068057;28;20407;-72
2023/08/07 08:36:20;;;;;;;7.07;0.90;;;;;;;;;;5060962;28;20437;-73
2023/08/07 08:38:48;;;;;;;4.93;1.10;;;;;;;;;;5067377;28;20048;-73
2023/08/07 08:41:16;;;;;;;6.68;1.10;;;;;;;;;;5065712;28;20063;-73
2023/08/07 08:43:44;;;;;;;2.88;1.00;;;;;;;;;;5065191;28;20049;-74
2023/08/07 08:46:12;;;;;;;3.22;0.95;;;;;;;;;;5063755;28;20067;-74
2023/08/07 08:48:40;;;;;;;5.32;1.33;;;;;;;;;;5067221;28;20079;-72
2023/08/07 08:51:11;;;;;;;6.47;0.90;;;;;;;;;;5067849;28;20044;-72
2023/08/07 08:53:38;;;;;;;6.63;1.45;;;;;;;;;;5060939;28;20433;-71
2023/08/07 08:56:06;;;;;;;6.82;1.23;;;;;;;;;;5064091;28;20048;-72
2023/08/07 08:58:34;;;;;;;3.90;1.30;;;;;;;;;;5060472;28;20052;-73
2023/08/07 09:01:01;;;;;;;7.65;1.33;;;;;;;;;;5067721;28;20506;-72
2023/08/07 09:03:28;;;;;;;3.38;0.90;;;;;;;;;;5065576;28;20052;-72
2023/08/07 09:06:00;;;;;;;5.38;1.17;;;;;;;;;;5070628;28;20044;-72
2023/08/07 09:08:32;;;;;;;7.07;1.33;;;;;;;;;;5066761;28;20052;-71
2023/08/07 09:10:59;;;;;;;4.50;1.75;;;;;;;;;;5064673;28;20110;-72
2023/08/07 09:13:28;;;;;;;7.53;1.15;;;;;;;;;;5066598;28;20087;-71
2023/08/07 09:15:55;;;;;;;3.83;1.10;;;;;;;;;;5064732;28;20052;-71
2023/08/07 09:18:23;;;;;;;5.18;1.10;;;;;;;;;;5060336;28;20441;-71
2023/08/07 09:20:50;;;;;;;4.53;1.63;;;;;;;;;;5067762;28;20132;-72
2023/08/07 09:23:17;;;;;;;12.07;1.90;;;;;;;;;;5067284;28;20503;-71
2023/08/07 09:25:46;;;;;;;3.90;1.17;;;;;;;;;;5066748;28;20062;-71
2023/08/07 09:28:14;;;;;;;5.05;1.23;;;;;;;;;;5065359;28;20135;-71
2023/08/07 09:30:44;;;;;;;4.30;1.20;;;;;;;;;;5068037;28;20062;-71
2023/08/07 09:33:11;;;;;;;6.15;1.00;;;;;;;;;;5066811;28;20084;-71
2023/08/07 09:35:38;;;;;;;5.22;1.08;;;;;;;;;;5067787;28;20054;-71
2023/08/07 09:38:05;;;;;;;5.22;1.10;;;;;;;;;;5058985;28;20052;-71
2023/08/07 09:40:33;;;;;;;2.80;1.10;;;;;;;;;;5065537;28;20445;-71
2023/08/07 09:43:03;;;;;;;3.50;1.20;;;;;;;;;;5065564;28;20052;-72
2023/08/07 09:45:31;;;;;;;8.35;1.65;;;;;;;;;;5066660;28;20064;-73
2023/08/07 09:47:59;;;;;;;6.82;1.83;;;;;;;;;;5068742;28;20476;-72
2023/08/07 09:50:27;;;;;;;5.05;1.42;;;;;;;;;;5066310;28;20084;-73
2023/08/07 09:52:55;;;;;;;3.45;1.20;;;;;;;;;;5067086;28;20512;-73
2023/08/07 09:55:22;;;;;;;5.22;1.75;;;;;;;;;;5067235;28;20054;-73
2023/08/07 09:57:50;;;;;;;7.03;1.52;;;;;;;;;;5068165;28;20064;-72
2023/08/07 10:00:19;;;;;;;4.00;0.98;;;;;;;;;;5068981;28;20048;-72
2023/08/07 10:02:48;;;;;;;5.38;1.10;;;;;;;;;;5069984;28;20047;-71
2023/08/07 10:05:15;;;;;;;5.10;1.13;;;;;;;;;;5070700;28;20411;-72
2023/08/07 10:07:43;;;;;;;5.68;1.33;;;;;;;;;;5068104;28;20415;-72
2023/08/07 10:10:11;;;;;;;5.18;1.15;;;;;;;;;;5068468;28;20059;-72
2023/08/07 10:12:38;;;;;;;4.10;0.95;;;;;;;;;;5066397;28;20040;-71
2023/08/07 10:15:06;;;;;;;6.13;1.20;;;;;;;;;;5070108;28;20044;-73
2023/08/07 10:17:35;;;;;;;2.80;1.23;;;;;;;;;;5066957;28;20048;-73
2023/08/07 10:20:04;;;;;;;3.60;1.00;;;;;;;;;;5065723;28;20157;-72
2023/08/07 10:22:32;;;;;;;4.03;1.30;;;;;;;;;;5069216;28;20057;-72
2023/08/07 10:25:02;;;;;;;4.13;1.33;;;;;;;;;;5060920;28;20052;-73
2023/08/07 10:27:31;;;;;;;3.47;0.90;;;;;;;;;;5065877;28;20048;-72
2023/08/07 10:29:59;;;;;;;2.25;0.95;;;;;;;;;;5064685;28;20060;-73
2023/08/07 10:32:27;;;;;;;4.25;0.90;;;;;;;;;;5067402;28;20047;-73
2023/08/07 10:34:56;;;;;;;4.50;1.10;;;;;;;;;;5067311;28;20056;-73
2023/08/07 10:37:40;;;;;;;4.68;0.88;;;;;;;;;;5062280;28;20056;-72
2023/08/07 10:40:09;;;;;;;4.13;1.10;;;;;;;;;;5068872;28;20036;-73
2023/08/07 10:42:51;;;;;;;4.75;1.10;;;;;;;;;;5062497;28;20045;-71
2023/08/07 10:45:21;;;;;;;2.28;1.13;;;;;;;;;;5057733;28;20044;-74
2023/08/07 10:47:58;;;;;;;6.25;1.17;;;;;;;;;;5067078;28;20055;-72
2023/08/07 10:50:30;;;;;;;5.93;1.10;;;;;;;;;;5067038;28;20678;-73
2023/08/07 10:52:57;;;;;;;5.40;1.60;;;;;;;;;;5066505;28;20040;-72
2023/08/07 10:55:25;;;;;;;1.63;0.80;;;;;;;;;;5058420;28;20305;-73
2023/08/07 10:57:53;;;;;;;4.72;1.20;;;;;;;;;;5065669;28;20084;-73
2023/08/07 11:00:23;;;;;;;2.63;1.00;;;;;;;;;;5060173;28;20055;-74
2023/08/07 11:02:52;;;;;;;3.25;1.02;;;;;;;;;;5057276;28;20045;-73
2023/08/07 11:05:20;;;;;;;4.20;1.20;;;;;;;;;;5067956;28;20048;-73
2023/08/07 11:07:48;;;;;;;3.67;1.10;;;;;;;;;;5063935;28;20154;-73
2023/08/07 11:10:16;;;;;;;4.50;1.30;;;;;;;;;;5067966;28;20045;-73
2023/08/07 11:12:43;;;;;;;5.25;1.08;;;;;;;;;;5065618;28;20055;-73
2023/08/07 11:15:14;;;;;;;1.92;1.13;;;;;;;;;;5062608;28;20128;-74
2023/08/07 11:17:42;;;;;;;4.20;1.20;;;;;;;;;;5064349;28;20165;-73
2023/08/07 11:20:10;;;;;;;10.70;1.30;;;;;;;;;;5063941;28;20059;-74
2023/08/07 11:22:41;;;;;;;6.18;1.42;;;;;;;;;;5065149;28;20059;-72
2023/08/07 11:25:13;;;;;;;4.05;1.15;;;;;;;;;;5062895;28;20189;-72
2023/08/07 11:27:41;;;;;;;5.00;1.30;;;;;;;;;;5060322;28;20052;-72
2023/08/07 11:30:12;;;;;;;5.43;1.40;;;;;;;;;;5065173;28;20869;-73
2023/08/07 11:32:40;;;;;;;3.08;1.17;;;;;;;;;;5063195;28;20053;-73
2023/08/07 11:35:08;;;;;;;5.25;1.23;;;;;;;;;;5064060;28;20048;-70
2023/08/07 11:37:35;;;;;;;3.47;1.10;;;;;;;;;;5064967;28;20057;-72
2023/08/07 11:40:03;;;;;;;3.10;1.00;;;;;;;;;;5066515;28;20089;-72
2023/08/07 11:42:32;;;;;;;2.55;1.00;;;;;;;;;;5066489;28;20045;-73
2023/08/07 11:44:59;;;;;;;3.97;1.00;;;;;;;;;;5060977;28;20060;-72
2023/08/07 11:47:26;;;;;;;2.92;1.10;;;;;;;;;;5066204;28;20499;-70
2023/08/07 11:49:54;;;;;;;5.75;1.40;;;;;;;;;;5067820;28;20056;-72
2023/08/07 11:52:23;;;;;;;4.57;1.20;;;;;;;;;;5066998;28;20045;-73
2023/08/07 11:54:50;;;;;;;5.57;1.00;;;;;;;;;;5062683;28;20197;-72
2023/08/07 11:57:18;;;;;;;2.05;1.10;;;;;;;;;;5067084;28;20496;-73
2023/08/07 11:59:51;;;;;;;3.28;0.93;;;;;;;;;;5067212;28;20480;-73
2023/08/07 12:02:18;;;;;;;1.63;0.95;;;;;;;;;;5061039;28;20131;-73
2023/08/07 12:04:45;;;;;;;6.30;1.10;;;;;;;;;;5061276;28;20049;-72
2023/08/07 12:07:13;;;;;;;4.68;1.10;;;;;;;;;;5066852;28;20377;-71
2023/08/07 12:09:40;;;;;;;4.43;1.10;;;;;;;;;;5055530;28;20563;-71
2023/08/07 12:12:08;;;;;;;2.63;1.08;;;;;;;;;;5061604;28;20044;-72
2023/08/07 12:14:36;;;;;;;5.60;1.23;;;;;;;;;;5062931;28;20052;-73
2023/08/07 12:17:06;;;;;;;3.92;1.15;;;;;;;;;;5065577;28;20545;-73
2023/08/07 12:19:37;;;;;;;3.30;0.93;;;;;;;;;;5066727;28;20048;-74
2023/08/07 12:22:07;;;;;;;6.43;1.35;;;;;;;;;;5065300;28;20114;-73
2023/08/07 12:24:36;;;;;;;4.00;1.33;;;;;;;;;;5064223;28;20060;-72
2023/08/07 12:27:04;;;;;;;5.55;1.42;;;;;;;;;;5063237;28;20052;-73
2023/08/07 12:29:31;;;;;;;5.57;1.50;;;;;;;;;;5061187;28;20070;-74
2023/08/07 12:31:59;;;;;;;5.03;1.48;;;;;;;;;;5062350;28;20045;-72
2023/08/07 12:34:27;;;;;;;4.95;1.40;;;;;;;;;;5066753;28;20084;-72
2023/08/07 12:36:54;;;;;;;3.63;1.17;;;;;;;;;;5066518;28;20163;-73
2023/08/07 12:39:22;;;;;;;3.40;1.38;;;;;;;;;;5067591;28;20041;-73
2023/08/07 12:41:49;;;;;;;3.65;1.30;;;;;;;;;;5064979;28;20051;-73
2023/08/07 12:44:16;;;;;;;4.95;1.70;;;;;;;;;;5062718;28;20498;-72
2023/08/07 12:46:44;;;;;;;3.17;1.30;;;;;;;;;;5066079;28;20052;-73
2023/08/07 12:49:11;;;;;;;6.10;1.55;;;;;;;;;;5066598;28;20053;-70
2023/08/07 12:51:40;;;;;;;7.00;1.67;;;;;;;;;;5063544;28;20052;-72
2023/08/07 12:54:07;;;;;;;3.95;1.52;;;;;;;;;;5058708;28;20067;-72
2023/08/07 12:56:34;;;;;;;4.78;1.23;;;;;;;;;;5062873;28;20049;-72
2023/08/07 12:59:01;;;;;;;3.80;1.40;;;;;;;;;;5061576;28;20044;-74
2023/08/07 13:01:29;;;;;;;4.22;1.40;;;;;;;;;;5062692;28;20052;-72
2023/08/07 13:03:56;;;;;;;5.30;1.30;;;;;;;;;;5070532;28;20071;-72
2023/08/07 13:06:23;;;;;;;4.18;1.27;;;;;;;;;;5069099;28;20055;-73
2023/08/07 13:08:52;;;;;;;3.50;1.48;;;;;;;;;;5070449;28;20048;-72
2023/08/07 13:11:19;;;;;;;8.07;1.73;;;;;;;;;;5063785;28;20139;-74
2023/08/07 13:13:46;;;;;;;4.63;1.30;;;;;;;;;;5066732;28;20052;-74
2023/08/07 13:16:13;;;;;;;4.35;1.35;;;;;;;;;;5062890;28;20048;-72
2023/08/07 13:18:41;;;;;;;3.30;1.20;;;;;;;;;;5067587;28;20052;-71
2023/08/07 13:21:08;;;;;;;3.95;1.50;;;;;;;;;;5069875;28;20049;-73
2023/08/07 13:23:35;;;;;;;4.57;1.02;;;;;;;;;;5067046;28;20051;-73
2023/08/07 13:26:04;;;;;;;3.70;1.50;;;;;;;;;;5071210;28;21219;-74
2023/08/07 13:28:31;;;;;;;4.90;1.67;;;;;;;;;;5066201;28;20053;-74
2023/08/07 13:30:58;;;;;;;2.83;1.30;;;;;;;;;;5070132;28;20072;-73
2023/08/07 13:33:25;;;;;;;4.88;1.27;;;;;;;;;;5068275;28;20053;-74
2023/08/07 13:35:53;;;;;;;4.75;1.30;;;;;;;;;;5069946;28;20396;-75
2023/08/07 13:38:20;;;;;;;3.17;1.27;;;;;;;;;;5069346;28;20053;-75
2023/08/07 13:40:47;;;;;;;5.95;1.58;;;;;;;;;;5069496;28;20055;-72
2023/08/07 13:43:16;;;;;;;6.55;1.40;;;;;;;;;;5065062;28;20504;-73
2023/08/07 13:45:43;;;;;;;3.20;1.38;;;;;;;;;;5070507;28;20472;-73
2023/08/07 13:48:10;;;;;;;4.72;1.25;;;;;;;;;;5068191;28;20566;-75
2023/08/07 13:50:38;;;;;;;5.55;1.45;;;;;;;;;;5069873;28;20048;-72
2023/08/07 13:53:06;;;;;;;7.82;1.35;;;;;;;;;;5064784;28;20048;-74
2023/08/07 13:55:33;;;;;;;2.70;1.15;;;;;;;;;;5066930;28;20055;-74
2023/08/07 13:58:00;;;;;;;6.95;1.48;;;;;;;;;;5065658;28;20052;-73
2023/08/07 14:00:29;;;;;;;3.10;1.30;;;;;;;;;;5063768;28;20053;-74
2023/08/07 14:02:56;;;;;;;4.35;1.45;;;;;;;;;;5067973;28;20105;-74
2023/08/07 14:05:23;;;;;;;3.65;1.45;;;;;;;;;;5068852;28;20048;-74
2023/08/07 14:07:52;;;;;;;4.22;1.20;;;;;;;;;;5066577;28;20045;-75
2023/08/07 14:10:20;;;;;;;5.65;1.33;;;;;;;;;;5066337;28;20048;-74
2023/08/07 14:12:47;;;;;;;3.88;1.13;;;;;;;;;;5068184;28;20139;-73
2023/08/07 14:15:14;;;;;;;4.70;1.30;;;;;;;;;;5067921;28;20406;-75
2023/08/07 14:17:43;;;;;;;4.82;1.30;;;;;;;;;;5067703;28;20048;-74
2023/08/07 14:20:10;;;;;;;4.18;1.20;;;;;;;;;;5063896;28;20067;-73
2023/08/07 14:22:38;;;;;;;2.47;1.25;;;;;;;;;;5068608;28;20045;-73
2023/08/07 14:25:05;;;;;;;3.33;1.20;;;;;;;;;;5059451;28;20052;-73
2023/08/07 14:27:33;;;;;;;3.13;0.90;;;;;;;;;;5065218;28;20087;-73
2023/08/07 14:30:00;;;;;;;4.07;1.30;;;;;;;;;;5062910;28;20051;-71
2023/08/07 14:32:28;;;;;;;2.72;0.95;;;;;;;;;;5063958;28;20048;-74
2023/08/07 14:34:56;;;;;;;2.55;1.10;;;;;;;;;;5063805;28;20063;-73
2023/08/07 14:37:24;;;;;;;2.13;1.00;;;;;;;;;;5064983;28;20048;-74
2023/08/07 14:39:51;;;;;;;2.47;1.00;;;;;;;;;;5065151;28;20048;-74
2023/08/07 14:42:18;;;;;;;4.43;1.00;;;;;;;;;;5063407;28;20052;-74
2023/08/07 14:44:45;;;;;;;2.72;1.00;;;;;;;;;;5061666;28;20048;-74